sensor_id;sensor_type;location;lat;lon;timestamp;P1;durP1;ratioP1;P2;durP2;ratioP2
49946;SDS011;35839;48.662;13.300;2023-01-28T05:34:18;17.97;;;10.53;;
49946;SDS011;35839;48.662;13.300;2023-01-28T05:36:44;20.87;;;11.93;;
49946;SDS011;35839;48.662;13.300;2023-01-28T05:39:09;20.87;;;11.43;;
49946;SDS011;35839;48.662;13.300;2023-01-28T05:41:34;21.87;;;12.00;;
49946;SDS011;35839;48.662;13.300;2023-01-28T05:44:00;24.33;;;12.40;;
49946;SDS011;35839;48.662;13.300;2023-01-28T05:46:25;21.70;;;12.50;;
49946;SDS011;35839;48.662;13.300;2023-01-28T05:48:50;33.93;;;15.23;;
49946;SDS011;35839;48.662;13.300;2023-01-28T05:51:16;21.20;;;11.83;;
49946;SDS011;35839;48.662;13.300;2023-01-28T05:53:41;20.47;;;11.93;;
49946;SDS011;35839;48.662;13.300;2023-01-28T05:56:07;22.80;;;12.40;;
49946;SDS011;35839;48.662;13.300;2023-01-28T05:58:32;24.10;;;12.97;;
49946;SDS011;35839;48.662;13.300;2023-01-28T06:00:57;20.93;;;12.17;;
49946;SDS011;35839;48.662;13.300;2023-01-28T06:03:23;23.67;;;12.80;;
49946;SDS011;35839;48.662;13.300;2023-01-28T06:05:48;22.77;;;12.40;;
49946;SDS011;35839;48.662;13.300;2023-01-28T06:08:13;27.77;;;14.27;;
49946;SDS011;35839;48.662;13.300;2023-01-28T06:10:39;24.20;;;12.93;;
49946;SDS011;35839;48.662;13.300;2023-01-28T06:13:04;27.33;;;13.43;;
49946;SDS011;35839;48.662;13.300;2023-01-28T06:15:29;22.73;;;12.87;;
49946;SDS011;35839;48.662;13.300;2023-01-28T06:17:55;23.93;;;13.50;;
49946;SDS011;35839;48.662;13.300;2023-01-28T06:20:20;23.33;;;13.53;;
49946;SDS011;35839;48.662;13.300;2023-01-28T06:22:45;22.50;;;12.27;;
49946;SDS011;35839;48.662;13.300;2023-01-28T06:25:11;26.57;;;14.33;;
49946;SDS011;35839;48.662;13.300;2023-01-28T06:27:36;35.00;;;16.97;;
49946;SDS011;35839;48.662;13.300;2023-01-28T06:30:02;37.53;;;15.93;;
49946;SDS011;35839;48.662;13.300;2023-01-28T06:32:27;38.40;;;18.97;;
49946;SDS011;35839;48.662;13.300;2023-01-28T06:34:53;36.40;;;18.23;;
49946;SDS011;35839;48.662;13.300;2023-01-28T06:37:18;33.03;;;17.83;;
49946;SDS011;35839;48.662;13.300;2023-01-28T06:39:43;37.40;;;18.07;;
49946;SDS011;35839;48.662;13.300;2023-01-28T06:42:08;27.30;;;12.43;;
49946;SDS011;35839;48.662;13.300;2023-01-28T06:44:34;21.60;;;13.30;;
49946;SDS011;35839;48.662;13.300;2023-01-28T06:46:59;22.50;;;12.17;;
49946;SDS011;35839;48.662;13.300;2023-01-28T06:49:24;22.90;;;12.57;;
49946;SDS011;35839;48.662;13.300;2023-01-28T06:51:49;24.77;;;12.87;;
49946;SDS011;35839;48.662;13.300;2023-01-28T06:54:15;21.63;;;12.67;;
49946;SDS011;35839;48.662;13.300;2023-01-28T06:56:40;22.73;;;13.20;;
49946;SDS011;35839;48.662;13.300;2023-01-28T06:59:05;25.30;;;13.77;;
49946;SDS011;35839;48.662;13.300;2023-01-28T07:01:34;26.53;;;13.63;;
49946;SDS011;35839;48.662;13.300;2023-01-28T07:03:59;23.27;;;12.70;;
49946;SDS011;35839;48.662;13.300;2023-01-28T07:06:28;23.60;;;11.73;;
49946;SDS011;35839;48.662;13.300;2023-01-28T07:08:53;26.63;;;12.97;;
49946;SDS011;35839;48.662;13.300;2023-01-28T07:11:18;22.63;;;13.13;;
49946;SDS011;35839;48.662;13.300;2023-01-28T07:13:44;22.67;;;11.77;;
49946;SDS011;35839;48.662;13.300;2023-01-28T07:16:09;25.50;;;13.43;;
49946;SDS011;35839;48.662;13.300;2023-01-28T07:18:34;20.90;;;12.20;;
49946;SDS011;35839;48.662;13.300;2023-01-28T07:20:59;26.17;;;13.30;;
49946;SDS011;35839;48.662;13.300;2023-01-28T07:23:25;30.77;;;14.90;;
49946;SDS011;35839;48.662;13.300;2023-01-28T07:25:50;31.57;;;15.17;;
49946;SDS011;35839;48.662;13.300;2023-01-28T07:28:16;28.87;;;15.20;;
49946;SDS011;35839;48.662;13.300;2023-01-28T07:30:50;33.77;;;14.97;;
49946;SDS011;35839;48.662;13.300;2023-01-28T07:33:16;31.00;;;14.57;;
49946;SDS011;35839;48.662;13.300;2023-01-28T07:35:42;28.73;;;13.57;;
49946;SDS011;35839;48.662;13.300;2023-01-28T07:38:07;36.03;;;14.40;;
49946;SDS011;35839;48.662;13.300;2023-01-28T07:40:33;28.03;;;13.97;;
49946;SDS011;35839;48.662;13.300;2023-01-28T07:42:58;24.60;;;13.93;;
49946;SDS011;35839;48.662;13.300;2023-01-28T07:45:24;31.77;;;14.93;;
49946;SDS011;35839;48.662;13.300;2023-01-28T07:47:54;26.60;;;14.03;;
49946;SDS011;35839;48.662;13.300;2023-01-28T07:50:23;29.40;;;15.73;;
49946;SDS011;35839;48.662;13.300;2023-01-28T07:52:48;28.43;;;15.10;;
49946;SDS011;35839;48.662;13.300;2023-01-28T07:55:14;27.43;;;15.50;;
49946;SDS011;35839;48.662;13.300;2023-01-28T07:57:54;27.50;;;14.80;;
49946;SDS011;35839;48.662;13.300;2023-01-28T08:00:20;28.30;;;15.40;;
49946;SDS011;35839;48.662;13.300;2023-01-28T08:02:47;29.67;;;15.47;;
49946;SDS011;35839;48.662;13.300;2023-01-28T08:05:14;30.10;;;16.77;;
49946;SDS011;35839;48.662;13.300;2023-01-28T08:07:43;28.80;;;16.23;;
49946;SDS011;35839;48.662;13.300;2023-01-28T08:10:09;27.50;;;15.73;;
49946;SDS011;35839;48.662;13.300;2023-01-28T08:12:36;25.27;;;15.33;;
49946;SDS011;35839;48.662;13.300;2023-01-28T08:15:02;32.30;;;15.13;;
49946;SDS011;35839;48.662;13.300;2023-01-28T08:17:29;22.60;;;14.20;;
49946;SDS011;35839;48.662;13.300;2023-01-28T08:19:54;28.13;;;17.07;;
49946;SDS011;35839;48.662;13.300;2023-01-28T08:22:23;21.30;;;13.90;;
49946;SDS011;35839;48.662;13.300;2023-01-28T08:24:49;22.00;;;12.90;;
49946;SDS011;35839;48.662;13.300;2023-01-28T08:27:14;21.93;;;12.30;;
49946;SDS011;35839;48.662;13.300;2023-01-28T08:29:40;29.13;;;13.97;;
49946;SDS011;35839;48.662;13.300;2023-01-28T08:32:05;29.50;;;14.53;;
49946;SDS011;35839;48.662;13.300;2023-01-28T08:34:30;23.77;;;13.03;;
49946;SDS011;35839;48.662;13.300;2023-01-28T08:36:55;25.40;;;15.07;;
49946;SDS011;35839;48.662;13.300;2023-01-28T08:39:21;25.53;;;14.20;;
49946;SDS011;35839;48.662;13.300;2023-01-28T08:41:46;30.27;;;14.67;;
49946;SDS011;35839;48.662;13.300;2023-01-28T08:44:11;42.20;;;19.23;;
49946;SDS011;35839;48.662;13.300;2023-01-28T08:46:36;43.50;;;22.93;;
49946;SDS011;35839;48.662;13.300;2023-01-28T08:49:02;39.20;;;20.90;;
49946;SDS011;35839;48.662;13.300;2023-01-28T08:51:27;47.67;;;21.70;;
49946;SDS011;35839;48.662;13.300;2023-01-28T08:53:52;34.17;;;18.90;;
49946;SDS011;35839;48.662;13.300;2023-01-28T08:56:17;35.40;;;19.07;;
49946;SDS011;35839;48.662;13.300;2023-01-28T08:58:43;66.13;;;18.40;;
49946;SDS011;35839;48.662;13.300;2023-01-28T09:01:09;46.47;;;16.60;;
49946;SDS011;35839;48.662;13.300;2023-01-28T09:03:34;63.10;;;20.60;;
49946;SDS011;35839;48.662;13.300;2023-01-28T09:06:00;64.70;;;19.33;;
49946;SDS011;35839;48.662;13.300;2023-01-28T09:08:27;62.57;;;22.37;;
49946;SDS011;35839;48.662;13.300;2023-01-28T09:10:56;64.10;;;20.77;;
49946;SDS011;35839;48.662;13.300;2023-01-28T09:13:22;31.67;;;15.60;;
49946;SDS011;35839;48.662;13.300;2023-01-28T09:15:47;34.10;;;14.93;;
49946;SDS011;35839;48.662;13.300;2023-01-28T09:18:13;25.83;;;15.37;;
49946;SDS011;35839;48.662;13.300;2023-01-28T09:20:38;30.80;;;16.47;;
49946;SDS011;35839;48.662;13.300;2023-01-28T09:23:03;30.40;;;15.07;;
49946;SDS011;35839;48.662;13.300;2023-01-28T09:25:29;25.20;;;14.20;;
49946;SDS011;35839;48.662;13.300;2023-01-28T09:27:54;31.53;;;14.87;;
49946;SDS011;35839;48.662;13.300;2023-01-28T09:30:19;22.30;;;13.77;;
49946;SDS011;35839;48.662;13.300;2023-01-28T09:32:48;28.67;;;13.20;;
49946;SDS011;35839;48.662;13.300;2023-01-28T09:35:14;30.15;;;13.93;;
49946;SDS011;35839;48.662;13.300;2023-01-28T09:37:40;24.47;;;14.67;;
49946;SDS011;35839;48.662;13.300;2023-01-28T09:40:05;27.77;;;14.17;;
49946;SDS011;35839;48.662;13.300;2023-01-28T09:46:04;24.27;;;13.60;;
49946;SDS011;35839;48.662;13.300;2023-01-28T09:48:15;28.10;;;15.90;;
49946;SDS011;35839;48.662;13.300;2023-01-28T09:50:46;32.10;;;16.17;;
49946;SDS011;35839;48.662;13.300;2023-01-28T09:53:18;29.75;;;17.92;;
49946;SDS011;35839;48.662;13.300;2023-01-28T09:55:53;24.10;;;14.57;;
49946;SDS011;35839;48.662;13.300;2023-01-28T09:58:22;25.47;;;15.13;;
49946;SDS011;35839;48.662;13.300;2023-01-28T10:00:55;25.90;;;13.77;;
49946;SDS011;35839;48.662;13.300;2023-01-28T10:11:25;31.10;;;16.27;;
49946;SDS011;35839;48.662;13.300;2023-01-28T10:13:59;28.37;;;14.60;;
49946;SDS011;35839;48.662;13.300;2023-01-28T10:19:04;28.93;;;15.87;;
49946;SDS011;35839;48.662;13.300;2023-01-28T10:21:41;26.30;;;16.13;;
49946;SDS011;35839;48.662;13.300;2023-01-28T10:24:16;36.80;;;16.17;;
49946;SDS011;35839;48.662;13.300;2023-01-28T10:26:49;28.75;;;15.98;;
49946;SDS011;35839;48.662;13.300;2023-01-28T10:29:20;22.10;;;13.77;;
49946;SDS011;35839;48.662;13.300;2023-01-28T10:32:05;20.93;;;13.20;;
49946;SDS011;35839;48.662;13.300;2023-01-28T10:34:35;25.87;;;13.37;;
49946;SDS011;35839;48.662;13.300;2023-01-28T10:37:01;21.60;;;13.67;;
49946;SDS011;35839;48.662;13.300;2023-01-28T10:39:26;24.90;;;13.87;;
49946;SDS011;35839;48.662;13.300;2023-01-28T10:41:52;24.23;;;14.00;;
49946;SDS011;35839;48.662;13.300;2023-01-28T10:44:24;23.00;;;14.40;;
49946;SDS011;35839;48.662;13.300;2023-01-28T10:46:56;38.90;;;19.80;;
49946;SDS011;35839;48.662;13.300;2023-01-28T10:49:26;30.37;;;16.63;;
49946;SDS011;35839;48.662;13.300;2023-01-28T10:51:54;27.17;;;15.77;;
49946;SDS011;35839;48.662;13.300;2023-01-28T10:54:20;29.80;;;17.00;;
49946;SDS011;35839;48.662;13.300;2023-01-28T10:56:51;23.30;;;13.73;;
49946;SDS011;35839;48.662;13.300;2023-01-28T10:59:26;22.05;;;14.52;;
49946;SDS011;35839;48.662;13.300;2023-01-28T11:01:57;31.27;;;16.97;;
49946;SDS011;35839;48.662;13.300;2023-01-28T11:04:29;28.73;;;15.80;;
49946;SDS011;35839;48.662;13.300;2023-01-28T11:09:28;25.37;;;14.00;;
49946;SDS011;35839;48.662;13.300;2023-01-28T11:11:57;30.50;;;16.93;;
49946;SDS011;35839;48.662;13.300;2023-01-28T11:14:25;32.87;;;17.40;;
49946;SDS011;35839;48.662;13.300;2023-01-28T11:16:52;26.30;;;15.73;;
49946;SDS011;35839;48.662;13.300;2023-01-28T11:19:20;30.23;;;16.90;;
49946;SDS011;35839;48.662;13.300;2023-01-28T11:21:51;33.47;;;19.30;;
49946;SDS011;35839;48.662;13.300;2023-01-28T11:24:23;35.83;;;17.80;;
49946;SDS011;35839;48.662;13.300;2023-01-28T11:26:53;33.03;;;18.00;;
49946;SDS011;35839;48.662;13.300;2023-01-28T11:29:21;40.23;;;21.93;;
49946;SDS011;35839;48.662;13.300;2023-01-28T11:31:51;28.67;;;16.47;;
49946;SDS011;35839;48.662;13.300;2023-01-28T11:34:17;27.77;;;16.57;;
49946;SDS011;35839;48.662;13.300;2023-01-28T11:36:50;46.90;;;24.27;;
49946;SDS011;35839;48.662;13.300;2023-01-28T11:39:18;34.33;;;17.93;;
49946;SDS011;35839;48.662;13.300;2023-01-28T11:41:50;28.97;;;17.30;;
49946;SDS011;35839;48.662;13.300;2023-01-28T11:44:25;36.17;;;19.67;;
49946;SDS011;35839;48.662;13.300;2023-01-28T11:58:13;32.73;;;16.97;;
49946;SDS011;35839;48.662;13.300;2023-01-28T12:06:41;27.03;;;14.17;;
49946;SDS011;35839;48.662;13.300;2023-01-28T12:12:15;32.80;;;16.57;;
49946;SDS011;35839;48.662;13.300;2023-01-28T12:15:04;67.57;;;47.93;;
49946;SDS011;35839;48.662;13.300;2023-01-28T12:18:07;59.60;;;44.87;;
49946;SDS011;35839;48.662;13.300;2023-01-28T12:20:55;28.07;;;15.97;;
49946;SDS011;35839;48.662;13.300;2023-01-28T12:23:28;44.37;;;15.60;;
49946;SDS011;35839;48.662;13.300;2023-01-28T12:26:16;25.97;;;13.37;;
49946;SDS011;35839;48.662;13.300;2023-01-28T12:29:15;23.47;;;14.50;;
49946;SDS011;35839;48.662;13.300;2023-01-28T12:42:40;63.60;;;17.03;;
49946;SDS011;35839;48.662;13.300;2023-01-28T12:45:12;32.43;;;13.57;;
49946;SDS011;35839;48.662;13.300;2023-01-28T12:47:53;26.70;;;14.50;;
49946;SDS011;35839;48.662;13.300;2023-01-28T12:50:26;25.90;;;14.63;;
49946;SDS011;35839;48.662;13.300;2023-01-28T12:52:57;25.00;;;14.20;;
49946;SDS011;35839;48.662;13.300;2023-01-28T12:55:43;27.50;;;15.67;;
49946;SDS011;35839;48.662;13.300;2023-01-28T12:58:16;26.77;;;14.60;;
49946;SDS011;35839;48.662;13.300;2023-01-28T13:00:50;35.77;;;19.90;;
49946;SDS011;35839;48.662;13.300;2023-01-28T13:09:19;30.27;;;15.60;;
49946;SDS011;35839;48.662;13.300;2023-01-28T13:11:48;26.90;;;16.27;;
49946;SDS011;35839;48.662;13.300;2023-01-28T13:14:16;30.20;;;16.70;;
49946;SDS011;35839;48.662;13.300;2023-01-28T13:16:53;28.33;;;14.93;;
49946;SDS011;35839;48.662;13.300;2023-01-28T13:21:44;27.47;;;14.77;;
49946;SDS011;35839;48.662;13.300;2023-01-28T13:31:41;51.17;;;19.53;;
49946;SDS011;35839;48.662;13.300;2023-01-28T13:34:10;33.03;;;15.97;;
49946;SDS011;35839;48.662;13.300;2023-01-28T13:36:51;31.07;;;16.77;;
49946;SDS011;35839;48.662;13.300;2023-01-28T13:44:26;28.83;;;16.40;;
49946;SDS011;35839;48.662;13.300;2023-01-28T13:46:55;31.40;;;15.63;;
49946;SDS011;35839;48.662;13.300;2023-01-28T13:50:10;34.72;;;16.42;;
49946;SDS011;35839;48.662;13.300;2023-01-28T13:52:21;38.83;;;16.37;;
49946;SDS011;35839;48.662;13.300;2023-01-28T13:54:50;33.43;;;16.30;;
49946;SDS011;35839;48.662;13.300;2023-01-28T13:57:26;30.75;;;14.57;;
49946;SDS011;35839;48.662;13.300;2023-01-28T14:16:49;29.83;;;15.40;;
49946;SDS011;35839;48.662;13.300;2023-01-28T14:19:19;39.03;;;17.20;;
49946;SDS011;35839;48.662;13.300;2023-01-28T14:21:51;31.67;;;16.13;;
49946;SDS011;35839;48.662;13.300;2023-01-28T14:24:17;31.73;;;16.80;;
49946;SDS011;35839;48.662;13.300;2023-01-28T14:26:49;34.93;;;16.80;;
49946;SDS011;35839;48.662;13.300;2023-01-28T14:29:34;33.63;;;18.07;;
49946;SDS011;35839;48.662;13.300;2023-01-28T14:32:17;41.30;;;16.80;;
49946;SDS011;35839;48.662;13.300;2023-01-28T14:34:45;30.43;;;16.77;;
49946;SDS011;35839;48.662;13.300;2023-01-28T14:37:13;36.93;;;18.43;;
49946;SDS011;35839;48.662;13.300;2023-01-28T14:39:50;37.00;;;18.27;;
49946;SDS011;35839;48.662;13.300;2023-01-28T14:42:28;36.43;;;16.83;;
49946;SDS011;35839;48.662;13.300;2023-01-28T14:50:29;39.37;;;15.83;;
49946;SDS011;35839;48.662;13.300;2023-01-28T14:55:58;36.38;;;18.23;;
49946;SDS011;35839;48.662;13.300;2023-01-28T14:58:52;33.53;;;16.80;;
49946;SDS011;35839;48.662;13.300;2023-01-28T15:01:25;40.60;;;17.17;;
49946;SDS011;35839;48.662;13.300;2023-01-28T15:03:52;37.03;;;19.93;;
49946;SDS011;35839;48.662;13.300;2023-01-28T15:06:19;47.90;;;19.17;;
49946;SDS011;35839;48.662;13.300;2023-01-28T15:08:49;36.13;;;16.13;;
49946;SDS011;35839;48.662;13.300;2023-01-28T15:11:16;38.10;;;18.27;;
49946;SDS011;35839;48.662;13.300;2023-01-28T15:13:47;35.20;;;18.13;;
49946;SDS011;35839;48.662;13.300;2023-01-28T15:16:16;34.07;;;16.67;;
49946;SDS011;35839;48.662;13.300;2023-01-28T15:18:47;36.00;;;17.60;;
49946;SDS011;35839;48.662;13.300;2023-01-28T15:21:18;32.73;;;17.57;;
49946;SDS011;35839;48.662;13.300;2023-01-28T15:23:46;38.73;;;17.87;;
49946;SDS011;35839;48.662;13.300;2023-01-28T15:28:48;35.20;;;17.23;;
49946;SDS011;35839;48.662;13.300;2023-01-28T15:31:19;33.27;;;17.23;;
49946;SDS011;35839;48.662;13.300;2023-01-28T15:33:44;32.22;;;16.17;;
49946;SDS011;35839;48.662;13.300;2023-01-28T15:36:10;34.63;;;17.67;;
49946;SDS011;35839;48.662;13.300;2023-01-28T15:38:35;33.13;;;16.20;;
49946;SDS011;35839;48.662;13.300;2023-01-28T15:41:01;33.43;;;18.20;;
49946;SDS011;35839;48.662;13.300;2023-01-28T15:43:36;33.67;;;17.20;;
49946;SDS011;35839;48.662;13.300;2023-01-28T15:46:02;29.23;;;16.13;;
49946;SDS011;35839;48.662;13.300;2023-01-28T15:48:33;45.07;;;21.37;;
49946;SDS011;35839;48.662;13.300;2023-01-28T15:51:01;46.93;;;23.50;;
49946;SDS011;35839;48.662;13.300;2023-01-28T15:53:29;46.43;;;23.00;;
49946;SDS011;35839;48.662;13.300;2023-01-28T15:56:09;44.57;;;20.67;;
49946;SDS011;35839;48.662;13.300;2023-01-28T15:58:36;39.40;;;20.50;;
49946;SDS011;35839;48.662;13.300;2023-01-28T16:03:33;37.93;;;20.20;;
49946;SDS011;35839;48.662;13.300;2023-01-28T16:06:01;35.60;;;18.23;;
49946;SDS011;35839;48.662;13.300;2023-01-28T16:09:13;35.70;;;17.83;;
49946;SDS011;35839;48.662;13.300;2023-01-28T16:11:40;37.57;;;18.33;;
49946;SDS011;35839;48.662;13.300;2023-01-28T16:14:20;33.23;;;16.93;;
49946;SDS011;35839;48.662;13.300;2023-01-28T16:16:49;35.97;;;18.73;;
49946;SDS011;35839;48.662;13.300;2023-01-28T16:19:25;36.03;;;18.43;;
49946;SDS011;35839;48.662;13.300;2023-01-28T16:22:07;34.93;;;17.47;;
49946;SDS011;35839;48.662;13.300;2023-01-28T16:24:47;34.40;;;17.90;;
49946;SDS011;35839;48.662;13.300;2023-01-28T16:27:26;37.17;;;18.07;;
49946;SDS011;35839;48.662;13.300;2023-01-28T16:29:53;34.33;;;17.60;;
49946;SDS011;35839;48.662;13.300;2023-01-28T16:34:57;36.50;;;17.57;;
49946;SDS011;35839;48.662;13.300;2023-01-28T16:37:22;36.67;;;17.30;;
49946;SDS011;35839;48.662;13.300;2023-01-28T16:39:47;33.37;;;17.10;;
49946;SDS011;35839;48.662;13.300;2023-01-28T16:42:13;33.30;;;18.23;;
49946;SDS011;35839;48.662;13.300;2023-01-28T16:44:38;31.13;;;17.17;;
49946;SDS011;35839;48.662;13.300;2023-01-28T16:47:04;34.07;;;17.57;;
49946;SDS011;35839;48.662;13.300;2023-01-28T16:49:29;39.50;;;18.57;;
49946;SDS011;35839;48.662;13.300;2023-01-28T16:51:55;32.33;;;17.17;;
49946;SDS011;35839;48.662;13.300;2023-01-28T16:54:20;38.40;;;18.10;;
49946;SDS011;35839;48.662;13.300;2023-01-28T16:56:46;35.90;;;18.43;;
49946;SDS011;35839;48.662;13.300;2023-01-28T16:59:12;33.80;;;18.53;;
49946;SDS011;35839;48.662;13.300;2023-01-28T17:01:39;35.17;;;17.60;;
49946;SDS011;35839;48.662;13.300;2023-01-28T17:04:04;36.30;;;18.50;;
49946;SDS011;35839;48.662;13.300;2023-01-28T17:06:32;44.50;;;21.53;;
49946;SDS011;35839;48.662;13.300;2023-01-28T17:08:58;39.93;;;20.53;;
49946;SDS011;35839;48.662;13.300;2023-01-28T17:11:27;42.53;;;24.13;;
49946;SDS011;35839;48.662;13.300;2023-01-28T17:13:52;39.55;;;20.23;;
49946;SDS011;35839;48.662;13.300;2023-01-28T17:16:18;37.77;;;18.70;;
49946;SDS011;35839;48.662;13.300;2023-01-28T17:18:43;44.83;;;22.93;;
49946;SDS011;35839;48.662;13.300;2023-01-28T17:21:08;41.23;;;20.77;;
49946;SDS011;35839;48.662;13.300;2023-01-28T17:23:34;38.63;;;19.77;;
49946;SDS011;35839;48.662;13.300;2023-01-28T17:26:03;38.10;;;20.43;;
49946;SDS011;35839;48.662;13.300;2023-01-28T17:28:34;41.60;;;20.27;;
49946;SDS011;35839;48.662;13.300;2023-01-28T17:30:59;37.83;;;20.27;;
49946;SDS011;35839;48.662;13.300;2023-01-28T17:33:28;33.90;;;16.52;;
49946;SDS011;35839;48.662;13.300;2023-01-28T17:35:54;36.13;;;19.63;;
49946;SDS011;35839;48.662;13.300;2023-01-28T17:38:20;36.30;;;18.27;;
49946;SDS011;35839;48.662;13.300;2023-01-28T17:40:45;40.83;;;20.00;;
49946;SDS011;35839;48.662;13.300;2023-01-28T17:43:11;32.43;;;17.53;;
49946;SDS011;35839;48.662;13.300;2023-01-28T17:45:37;33.23;;;18.40;;
49946;SDS011;35839;48.662;13.300;2023-01-28T17:48:02;37.53;;;19.37;;
49946;SDS011;35839;48.662;13.300;2023-01-28T17:50:28;37.17;;;18.90;;
49946;SDS011;35839;48.662;13.300;2023-01-28T17:52:54;31.20;;;17.27;;
49946;SDS011;35839;48.662;13.300;2023-01-28T17:55:20;29.20;;;15.87;;
49946;SDS011;35839;48.662;13.300;2023-01-28T17:57:45;35.67;;;17.97;;
49946;SDS011;35839;48.662;13.300;2023-01-28T18:00:11;30.57;;;15.87;;
49946;SDS011;35839;48.662;13.300;2023-01-28T18:02:37;47.03;;;24.27;;
49946;SDS011;35839;48.662;13.300;2023-01-28T18:05:02;41.53;;;21.60;;
49946;SDS011;35839;48.662;13.300;2023-01-28T18:07:27;31.47;;;16.87;;
49946;SDS011;35839;48.662;13.300;2023-01-28T18:09:53;35.03;;;17.57;;
49946;SDS011;35839;48.662;13.300;2023-01-28T18:12:18;33.10;;;16.93;;
49946;SDS011;35839;48.662;13.300;2023-01-28T18:14:43;31.77;;;16.73;;
49946;SDS011;35839;48.662;13.300;2023-01-28T18:17:09;31.57;;;17.43;;
49946;SDS011;35839;48.662;13.300;2023-01-28T18:19:35;35.73;;;17.83;;
49946;SDS011;35839;48.662;13.300;2023-01-28T18:22:00;33.83;;;17.57;;
49946;SDS011;35839;48.662;13.300;2023-01-28T18:24:26;36.00;;;19.03;;
49946;SDS011;35839;48.662;13.300;2023-01-28T18:26:54;32.87;;;17.83;;
49946;SDS011;35839;48.662;13.300;2023-01-28T18:29:22;34.30;;;18.05;;
49946;SDS011;35839;48.662;13.300;2023-01-28T18:31:49;34.87;;;18.17;;
49946;SDS011;35839;48.662;13.300;2023-01-28T18:34:16;38.63;;;19.40;;
49946;SDS011;35839;48.662;13.300;2023-01-28T18:36:42;35.17;;;17.50;;
49946;SDS011;35839;48.662;13.300;2023-01-28T18:39:11;35.17;;;18.67;;
49946;SDS011;35839;48.662;13.300;2023-01-28T18:41:38;34.27;;;18.33;;
49946;SDS011;35839;48.662;13.300;2023-01-28T18:44:04;30.93;;;18.00;;
49946;SDS011;35839;48.662;13.300;2023-01-28T18:46:29;44.70;;;19.77;;
49946;SDS011;35839;48.662;13.300;2023-01-28T18:48:55;39.20;;;19.00;;
49946;SDS011;35839;48.662;13.300;2023-01-28T18:51:21;33.73;;;17.63;;
49946;SDS011;35839;48.662;13.300;2023-01-28T18:53:46;35.07;;;19.70;;
49946;SDS011;35839;48.662;13.300;2023-01-28T18:56:12;33.93;;;17.90;;
49946;SDS011;35839;48.662;13.300;2023-01-28T18:58:37;37.00;;;17.67;;
49946;SDS011;35839;48.662;13.300;2023-01-28T19:01:07;30.33;;;16.27;;
49946;SDS011;35839;48.662;13.300;2023-01-28T19:03:33;30.03;;;16.03;;
49946;SDS011;35839;48.662;13.300;2023-01-28T19:06:02;28.80;;;15.43;;
49946;SDS011;35839;48.662;13.300;2023-01-28T19:08:29;30.07;;;14.50;;
49946;SDS011;35839;48.662;13.300;2023-01-28T19:10:54;30.63;;;16.63;;
49946;SDS011;35839;48.662;13.300;2023-01-28T19:13:20;26.77;;;15.67;;
49946;SDS011;35839;48.662;13.300;2023-01-28T19:15:46;33.03;;;15.87;;
49946;SDS011;35839;48.662;13.300;2023-01-28T19:18:11;34.67;;;18.57;;
49946;SDS011;35839;48.662;13.300;2023-01-28T19:20:36;31.80;;;16.47;;
49946;SDS011;35839;48.662;13.300;2023-01-28T19:23:02;30.93;;;15.40;;
49946;SDS011;35839;48.662;13.300;2023-01-28T19:25:27;26.30;;;14.30;;
49946;SDS011;35839;48.662;13.300;2023-01-28T19:27:52;30.43;;;16.20;;
49946;SDS011;35839;48.662;13.300;2023-01-28T19:30:18;33.37;;;16.60;;
49946;SDS011;35839;48.662;13.300;2023-01-28T19:32:44;31.23;;;17.33;;
49946;SDS011;35839;48.662;13.300;2023-01-28T19:35:09;32.07;;;17.30;;
49946;SDS011;35839;48.662;13.300;2023-01-28T19:37:34;32.03;;;16.57;;
49946;SDS011;35839;48.662;13.300;2023-01-28T19:40:00;31.97;;;16.47;;
49946;SDS011;35839;48.662;13.300;2023-01-28T19:42:25;33.80;;;18.00;;
49946;SDS011;35839;48.662;13.300;2023-01-28T19:44:50;29.93;;;16.23;;
49946;SDS011;35839;48.662;13.300;2023-01-28T19:47:16;33.70;;;16.80;;
49946;SDS011;35839;48.662;13.300;2023-01-28T19:49:41;31.60;;;17.30;;
49946;SDS011;35839;48.662;13.300;2023-01-28T19:52:06;33.13;;;16.67;;
49946;SDS011;35839;48.662;13.300;2023-01-28T19:54:33;33.67;;;17.97;;
49946;SDS011;35839;48.662;13.300;2023-01-28T19:56:59;35.73;;;16.37;;
49946;SDS011;35839;48.662;13.300;2023-01-28T19:59:24;33.93;;;17.63;;
49946;SDS011;35839;48.662;13.300;2023-01-28T20:01:49;27.87;;;14.40;;
49946;SDS011;35839;48.662;13.300;2023-01-28T20:04:14;29.23;;;14.40;;
49946;SDS011;35839;48.662;13.300;2023-01-28T20:06:40;27.87;;;15.53;;
49946;SDS011;35839;48.662;13.300;2023-01-28T20:09:06;29.47;;;14.90;;
49946;SDS011;35839;48.662;13.300;2023-01-28T20:11:37;26.47;;;15.03;;
49946;SDS011;35839;48.662;13.300;2023-01-28T20:14:03;31.93;;;16.13;;
49946;SDS011;35839;48.662;13.300;2023-01-28T20:16:29;30.10;;;14.77;;
49946;SDS011;35839;48.662;13.300;2023-01-28T20:18:57;37.67;;;18.47;;
49946;SDS011;35839;48.662;13.300;2023-01-28T20:21:23;29.33;;;16.33;;
49946;SDS011;35839;48.662;13.300;2023-01-28T20:23:49;33.00;;;17.13;;
49946;SDS011;35839;48.662;13.300;2023-01-28T20:26:16;35.27;;;18.30;;
49946;SDS011;35839;48.662;13.300;2023-01-28T20:28:45;35.28;;;18.88;;
49946;SDS011;35839;48.662;13.300;2023-01-28T20:31:11;38.13;;;19.10;;
49946;SDS011;35839;48.662;13.300;2023-01-28T20:33:37;36.00;;;18.50;;
49946;SDS011;35839;48.662;13.300;2023-01-28T20:36:04;37.50;;;20.03;;
49946;SDS011;35839;48.662;13.300;2023-01-28T20:38:35;34.63;;;17.33;;
49946;SDS011;35839;48.662;13.300;2023-01-28T20:41:05;34.07;;;18.43;;
49946;SDS011;35839;48.662;13.300;2023-01-28T20:43:36;38.73;;;20.40;;
49946;SDS011;35839;48.662;13.300;2023-01-28T20:46:04;35.47;;;18.57;;
49946;SDS011;35839;48.662;13.300;2023-01-28T20:48:30;33.80;;;18.77;;
49946;SDS011;35839;48.662;13.300;2023-01-28T20:51:02;38.43;;;20.87;;
49946;SDS011;35839;48.662;13.300;2023-01-28T20:53:35;35.13;;;19.40;;
49946;SDS011;35839;48.662;13.300;2023-01-28T20:56:01;40.83;;;21.63;;
49946;SDS011;35839;48.662;13.300;2023-01-28T20:58:26;33.23;;;19.00;;
49946;SDS011;35839;48.662;13.300;2023-01-28T21:00:52;40.63;;;18.53;;
49946;SDS011;35839;48.662;13.300;2023-01-28T21:03:17;34.17;;;18.43;;
49946;SDS011;35839;48.662;13.300;2023-01-28T21:05:43;39.43;;;20.33;;
49946;SDS011;35839;48.662;13.300;2023-01-28T21:08:09;34.20;;;19.47;;
49946;SDS011;35839;48.662;13.300;2023-01-28T21:10:34;38.77;;;20.67;;
49946;SDS011;35839;48.662;13.300;2023-01-28T21:13:00;37.00;;;19.30;;
49946;SDS011;35839;48.662;13.300;2023-01-28T21:15:25;38.30;;;19.37;;
49946;SDS011;35839;48.662;13.300;2023-01-28T21:17:50;38.17;;;19.20;;
49946;SDS011;35839;48.662;13.300;2023-01-28T21:20:16;34.63;;;19.17;;
49946;SDS011;35839;48.662;13.300;2023-01-28T21:22:41;40.63;;;22.00;;
49946;SDS011;35839;48.662;13.300;2023-01-28T21:25:06;38.77;;;20.53;;
49946;SDS011;35839;48.662;13.300;2023-01-28T21:27:32;39.60;;;20.77;;
49946;SDS011;35839;48.662;13.300;2023-01-28T21:29:59;41.37;;;22.33;;